createdAt,value
2022-09-06T00:00:14.800Z,4.13
2022-09-06T00:02:42.529Z,3.65
2022-09-06T00:05:10.923Z,4.28
2022-09-06T00:07:37.977Z,3.55
2022-09-06T00:10:05.214Z,4.05
2022-09-06T00:12:32.288Z,3.85
2022-09-06T00:14:59.025Z,3.80
2022-09-06T00:17:25.856Z,4.07
2022-09-06T00:19:52.649Z,4.10
2022-09-06T00:22:19.350Z,3.95
2022-09-06T00:24:46.183Z,4.30
2022-09-06T00:27:13.050Z,3.88
2022-09-06T00:29:39.773Z,4.03
2022-09-06T00:32:06.626Z,4.00
2022-09-06T00:34:33.524Z,3.75
2022-09-06T00:37:00.322Z,4.43
2022-09-06T00:39:27.225Z,4.00
2022-09-06T00:41:54.151Z,4.07
2022-09-06T00:44:20.969Z,3.90
2022-09-06T00:46:49.707Z,4.10
2022-09-06T00:49:24.490Z,3.83
2022-09-06T00:51:57.282Z,4.07
2022-09-06T00:54:24.187Z,4.25
2022-09-06T00:56:51.008Z,3.75
2022-09-06T00:59:18.177Z,4.07
2022-09-06T01:01:44.917Z,4.07
2022-09-06T01:04:12.734Z,3.97
2022-09-06T01:07:09.338Z,4.22
2022-09-06T01:09:41.708Z,4.28
2022-09-06T01:12:19.958Z,4.38
2022-09-06T01:14:49.350Z,4.32
2022-09-06T01:17:37.593Z,4.22
2022-09-06T01:20:21.345Z,3.85
2022-09-06T01:22:50.950Z,4.30
2022-09-06T01:25:39.472Z,4.25
2022-09-06T01:28:23.741Z,4.28
2022-09-06T01:31:25.897Z,4.20
2022-09-06T01:34:15.419Z,4.28
2022-09-06T01:37:13.687Z,4.25
2022-09-06T01:39:41.942Z,4.07
2022-09-06T01:42:25.851Z,3.70
2022-09-06T01:45:00.037Z,4.28
2022-09-06T01:48:04.010Z,4.00
2022-09-06T01:50:51.941Z,4.18
2022-09-06T01:53:21.753Z,3.70
2022-09-06T01:56:03.507Z,4.30
2022-09-06T01:58:46.912Z,3.88
2022-09-06T02:01:37.522Z,4.47
2022-09-06T02:04:28.079Z,4.82
2022-09-06T02:07:00.976Z,4.22
2022-09-06T02:09:32.062Z,4.30
2022-09-06T02:12:02.028Z,4.70
2022-09-06T02:14:36.240Z,4.60
2022-09-06T02:17:05.893Z,3.92
2022-09-06T02:19:54.621Z,4.63
2022-09-06T02:22:23.869Z,4.38
2022-09-06T02:24:53.967Z,4.22
2022-09-06T02:27:20.871Z,4.63
2022-09-06T02:29:47.967Z,4.38
2022-09-06T02:32:26.856Z,4.40
2022-09-06T02:34:56.523Z,4.53
2022-09-06T02:37:26.285Z,3.92
2022-09-06T02:39:55.650Z,4.28
2022-09-06T02:42:24.201Z,4.70
2022-09-06T02:44:51.051Z,4.53
2022-09-06T02:47:18.267Z,4.38
2022-09-06T02:49:44.917Z,4.47
2022-09-06T02:52:12.070Z,4.63
2022-09-06T02:54:38.884Z,4.28
2022-09-06T02:57:05.608Z,4.30
2022-09-06T02:59:32.668Z,5.20
2022-09-06T03:02:00.230Z,4.20
2022-09-06T03:04:27.080Z,4.40
2022-09-06T03:06:53.800Z,4.30
2022-09-06T03:09:20.757Z,4.85
2022-09-06T03:11:47.425Z,4.18
2022-09-06T03:14:16.272Z,4.32
2022-09-06T03:16:43.687Z,4.38
2022-09-06T03:19:10.466Z,4.78
2022-09-06T03:21:37.352Z,4.90
2022-09-06T03:24:04.378Z,4.60
2022-09-06T03:26:31.277Z,4.35
2022-09-06T03:28:57.978Z,4.57
2022-09-06T03:31:24.816Z,4.63
2022-09-06T03:33:51.623Z,4.60
2022-09-06T03:36:18.394Z,4.45
2022-09-06T03:38:45.356Z,5.13
2022-09-06T03:41:12.135Z,4.72
2022-09-06T03:43:38.884Z,4.57
2022-09-06T03:46:07.006Z,4.53
2022-09-06T03:48:33.825Z,4.85
2022-09-06T03:51:00.638Z,4.80
2022-09-06T03:53:29.114Z,4.60
2022-09-06T03:55:57.898Z,4.55
2022-09-06T03:58:29.361Z,4.47
2022-09-06T04:01:10.584Z,4.50
2022-09-06T04:03:38.546Z,5.05
2022-09-06T04:06:07.100Z,5.07
2022-09-06T04:08:34.257Z,4.88
2022-09-06T04:11:01.098Z,4.72
2022-09-06T04:13:29.279Z,5.20
2022-09-06T04:15:56.318Z,4.63
2022-09-06T04:18:23.896Z,4.50
2022-09-06T04:20:52.438Z,4.57
2022-09-06T04:23:20.617Z,4.78
2022-09-06T04:25:48.887Z,4.47
2022-09-06T04:28:18.363Z,4.60
2022-09-06T04:30:46.495Z,5.03
2022-09-06T04:33:13.250Z,4.80
2022-09-06T04:35:40.069Z,5.03
2022-09-06T04:38:06.889Z,4.55
2022-09-06T04:40:33.880Z,5.38
2022-09-06T04:43:00.608Z,4.90
2022-09-06T04:45:27.566Z,5.00
2022-09-06T04:47:54.646Z,4.50
2022-09-06T04:50:21.319Z,4.78
2022-09-06T04:52:48.261Z,4.55
2022-09-06T04:55:15.187Z,4.65
2022-09-06T04:57:45.802Z,4.75
2022-09-06T05:00:14.653Z,4.38
2022-09-06T05:02:41.584Z,4.60
2022-09-06T05:05:09.564Z,4.25
2022-09-06T05:07:36.437Z,5.43
2022-09-06T05:10:03.504Z,6.40
2022-09-06T05:12:30.282Z,6.45
2022-09-06T05:14:57.172Z,5.65
2022-09-06T05:17:24.047Z,6.15
2022-09-06T05:19:50.778Z,6.53
2022-09-06T05:22:17.801Z,5.70
2022-09-06T05:24:45.039Z,6.32
2022-09-06T05:27:12.798Z,6.47
2022-09-06T05:29:39.769Z,5.88
2022-09-06T05:32:07.123Z,5.50
2022-09-06T05:34:33.979Z,6.20
2022-09-06T05:37:00.803Z,5.25
2022-09-06T05:39:27.674Z,5.65
2022-09-06T05:41:54.468Z,5.53
2022-09-06T05:44:21.261Z,6.60
2022-09-06T05:46:48.136Z,5.85
2022-09-06T05:49:15.019Z,5.93
2022-09-06T05:51:41.999Z,5.68
2022-09-06T05:54:11.431Z,5.72
2022-09-06T05:56:39.161Z,6.10
2022-09-06T05:59:06.159Z,6.80
2022-09-06T06:01:32.959Z,5.93
2022-09-06T06:04:02.365Z,7.18
2022-09-06T06:06:31.547Z,6.75
2022-09-06T06:08:59.010Z,6.95
2022-09-06T06:11:26.941Z,6.75
2022-09-06T06:13:53.764Z,6.72
2022-09-06T06:16:23.276Z,6.28
2022-09-06T06:18:52.425Z,6.57
2022-09-06T06:21:22.123Z,6.53
2022-09-06T06:23:58.429Z,6.82
2022-09-06T06:26:26.607Z,6.28
2022-09-06T06:28:54.036Z,6.50
2022-09-06T06:31:22.806Z,6.72
2022-09-06T06:33:50.145Z,6.72
2022-09-06T06:36:16.917Z,6.78
2022-09-06T06:38:46.604Z,6.38
2022-09-06T06:41:16.154Z,6.07
2022-09-06T06:43:43.352Z,5.95
2022-09-06T06:46:13.864Z,6.25
2022-09-06T06:48:41.759Z,6.53
2022-09-06T06:51:09.609Z,6.95
2022-09-06T06:53:36.987Z,6.30
2022-09-06T06:56:16.865Z,6.60
2022-09-06T06:58:44.693Z,6.68
2022-09-06T07:01:12.116Z,6.68
2022-09-06T07:03:39.449Z,6.93
2022-09-06T07:08:35.271Z,6.97
2022-09-06T07:11:02.434Z,6.43
2022-09-06T07:13:29.569Z,6.70
2022-09-06T07:16:13.583Z,7.32
2022-09-06T07:18:43.486Z,7.20
2022-09-06T07:26:30.711Z,7.68
2022-09-06T07:29:01.117Z,7.10
2022-09-06T07:34:17.848Z,7.03
2022-09-06T07:36:44.538Z,8.07
2022-09-06T07:39:11.370Z,7.95
2022-09-06T07:41:38.317Z,7.55
2022-09-06T07:44:05.072Z,7.88
2022-09-06T07:46:31.989Z,6.60
2022-09-06T07:48:58.852Z,6.38
2022-09-06T07:51:25.592Z,5.95
2022-09-06T07:54:12.885Z,6.82
2022-09-06T07:56:42.287Z,7.20
2022-09-06T07:59:09.443Z,7.00
2022-09-06T08:01:38.051Z,6.35
2022-09-06T08:04:13.267Z,6.90
2022-09-06T08:09:30.505Z,6.15
2022-09-06T08:11:57.311Z,6.53
2022-09-06T08:14:24.166Z,5.78
2022-09-06T08:16:51.065Z,6.80
2022-09-06T08:19:18.543Z,5.97
2022-09-06T08:21:45.322Z,5.70
2022-09-06T08:24:12.357Z,6.05
2022-09-06T08:26:40.814Z,5.85
2022-09-06T08:29:09.101Z,6.70
2022-09-06T08:31:38.504Z,6.82
2022-09-06T08:34:05.933Z,6.30
2022-09-06T08:36:33.748Z,5.95
2022-09-06T08:39:03.125Z,6.05
2022-09-06T08:41:46.196Z,6.32
2022-09-06T08:47:10.182Z,5.65
2022-09-06T08:49:48.866Z,5.63
2022-09-06T08:52:49.736Z,6.05
2022-09-06T08:55:48.174Z,6.90
2022-09-06T08:58:52.888Z,5.45
2022-09-06T09:01:25.502Z,5.80
2022-09-06T09:03:57.442Z,5.57
2022-09-06T09:06:27.733Z,5.47
2022-09-06T09:09:06.180Z,5.40
2022-09-06T09:11:36.100Z,5.78
2022-09-06T09:14:29.800Z,4.35
2022-09-06T09:17:05.492Z,4.70
2022-09-06T09:19:36.730Z,5.75
2022-09-06T09:22:03.554Z,5.63
2022-09-06T09:24:32.691Z,4.40
2022-09-06T09:27:13.937Z,4.88
2022-09-06T09:32:46.439Z,4.40
2022-09-06T09:35:31.987Z,4.60
2022-09-06T09:38:19.176Z,5.43
2022-09-06T09:40:57.656Z,4.78
2022-09-06T09:43:31.877Z,5.15
2022-09-06T09:46:24.893Z,4.10
2022-09-06T09:49:11.759Z,4.88
2022-09-06T09:51:44.405Z,4.07
2022-09-06T09:54:29.810Z,3.60
2022-09-06T09:56:57.561Z,3.55
2022-09-06T09:59:28.450Z,3.10
2022-09-06T10:02:01.667Z,3.50
2022-09-06T10:04:45.086Z,3.60
2022-09-06T10:07:18.020Z,3.53
2022-09-06T10:09:50.435Z,3.97
2022-09-06T10:12:47.864Z,3.15
2022-09-06T10:15:36.202Z,3.10
2022-09-06T10:18:03.212Z,3.00
2022-09-06T10:20:44.116Z,2.42
2022-09-06T10:26:19.071Z,2.90
2022-09-06T10:28:46.216Z,2.55
2022-09-06T10:31:16.225Z,2.45
2022-09-06T10:34:11.970Z,2.22
2022-09-06T10:36:44.540Z,1.92
2022-09-06T10:39:54.441Z,2.00
2022-09-06T10:42:33.206Z,2.10
2022-09-06T10:45:12.267Z,2.25
2022-09-06T10:48:12.574Z,2.20
2022-09-06T10:51:02.091Z,2.10
2022-09-06T10:53:34.951Z,2.08
2022-09-06T10:56:09.990Z,2.60
2022-09-06T11:01:40.455Z,2.03
2022-09-06T11:04:13.005Z,1.90
2022-09-06T11:06:52.781Z,2.00
2022-09-06T11:09:41.698Z,1.98
2022-09-06T11:12:17.067Z,1.80
2022-09-06T11:14:43.918Z,1.70
2022-09-06T11:17:19.456Z,1.60
2022-09-06T11:20:10.850Z,2.00
2022-09-06T11:22:52.730Z,1.70
2022-09-06T11:25:31.334Z,1.65
2022-09-06T11:28:01.000Z,2.10
2022-09-06T11:30:29.905Z,1.75
2022-09-06T11:33:30.540Z,1.60
2022-09-06T11:36:16.335Z,1.60
2022-09-06T11:38:43.427Z,1.50
2022-09-06T11:41:17.991Z,1.50
2022-09-06T11:43:53.923Z,1.50
2022-09-06T11:46:36.007Z,1.70
2022-09-06T11:49:21.299Z,1.50
2022-09-06T11:51:48.149Z,1.85
2022-09-06T11:54:15.077Z,1.70
2022-09-06T11:57:11.578Z,1.60
2022-09-06T11:59:50.812Z,1.63
2022-09-06T12:02:41.282Z,1.58
2022-09-06T12:05:12.689Z,1.40
2022-09-06T12:08:21.535Z,1.50
2022-09-06T12:11:00.543Z,1.80
2022-09-06T12:13:39.287Z,1.67
2022-09-06T12:16:06.630Z,1.30
2022-09-06T12:18:48.833Z,1.33
2022-09-06T12:21:46.531Z,1.27
2022-09-06T12:24:38.925Z,1.52
2022-09-06T12:27:15.776Z,1.67
2022-09-06T12:30:02.257Z,1.50
2022-09-06T12:32:37.849Z,1.50
2022-09-06T12:38:02.715Z,1.33
2022-09-06T12:40:33.043Z,1.60
2022-09-06T12:43:00.578Z,1.50
2022-09-06T12:45:27.828Z,1.45
2022-09-06T12:48:09.564Z,1.40
2022-09-06T12:50:37.057Z,1.65
2022-09-06T12:53:17.904Z,1.67
2022-09-06T12:55:47.569Z,1.85
2022-09-06T12:58:14.381Z,1.63
2022-09-06T13:00:47.878Z,1.67
2022-09-06T13:03:28.817Z,1.48
2022-09-06T13:05:59.459Z,1.60
2022-09-06T13:08:38.600Z,1.70
2022-09-06T13:11:10.969Z,1.50
2022-09-06T13:13:47.609Z,1.52
2022-09-06T13:16:37.172Z,1.42
2022-09-06T13:19:19.101Z,1.80
2022-09-06T13:21:47.114Z,1.38
2022-09-06T13:24:25.115Z,1.38
2022-09-06T13:26:52.715Z,1.50
2022-09-06T13:29:30.879Z,1.23
2022-09-06T13:32:02.723Z,1.40
2022-09-06T13:34:32.764Z,1.60
2022-09-06T13:37:10.397Z,1.38
2022-09-06T13:39:40.214Z,1.63
2022-09-06T13:42:11.859Z,1.50
2022-09-06T13:44:39.755Z,1.40
2022-09-06T13:47:06.931Z,1.27
2022-09-06T13:49:34.802Z,1.30
2022-09-06T13:52:04.500Z,1.48
2022-09-06T13:54:34.128Z,1.40
2022-09-06T13:57:01.935Z,1.40
2022-09-06T13:59:30.459Z,1.33
2022-09-06T14:02:09.965Z,1.38
2022-09-06T14:04:37.068Z,1.67
2022-09-06T14:07:04.931Z,1.55
2022-09-06T14:09:31.805Z,1.50
2022-09-06T14:12:35.615Z,1.60
2022-09-06T14:15:02.469Z,1.38
2022-09-06T14:17:29.358Z,1.45
2022-09-06T14:19:56.261Z,1.30
2022-09-06T14:22:23.422Z,1.40
2022-09-06T14:24:50.865Z,1.30
2022-09-06T14:27:18.668Z,1.30
2022-09-06T14:29:45.539Z,1.23
2022-09-06T14:32:12.354Z,1.30
2022-09-06T14:34:39.148Z,1.40
2022-09-06T14:37:09.259Z,1.60
2022-09-06T14:39:39.479Z,1.30
2022-09-06T14:42:06.406Z,1.10
2022-09-06T14:44:33.313Z,1.40
2022-09-06T14:47:00.265Z,1.50
2022-09-06T14:49:27.736Z,1.58
2022-09-06T14:51:55.487Z,1.33
2022-09-06T14:54:26.192Z,1.40
2022-09-06T14:56:56.509Z,1.35
2022-09-06T14:59:23.428Z,1.30
2022-09-06T15:01:50.265Z,1.50
2022-09-06T15:04:17.106Z,1.50
2022-09-06T15:06:47.236Z,1.20
2022-09-06T15:09:15.592Z,1.20
2022-09-06T15:11:48.641Z,1.33
2022-09-06T15:14:20.844Z,1.37
2022-09-06T15:16:53.464Z,1.25
2022-09-06T15:19:24.894Z,1.50
2022-09-06T15:21:51.918Z,1.50
2022-09-06T15:24:18.964Z,1.63
2022-09-06T15:26:46.915Z,1.25
2022-09-06T15:29:15.070Z,1.35
2022-09-06T15:31:43.340Z,1.20
2022-09-06T15:34:10.545Z,1.35
2022-09-06T15:36:37.684Z,1.23
2022-09-06T15:39:05.918Z,1.30
2022-09-06T15:41:36.233Z,1.20
2022-09-06T15:44:19.006Z,1.42
2022-09-06T15:46:59.964Z,1.25
2022-09-06T15:49:34.337Z,1.45
2022-09-06T15:52:03.248Z,1.50
2022-09-06T15:54:48.741Z,1.40
2022-09-06T15:57:16.990Z,1.17
2022-09-06T15:59:44.472Z,1.65
2022-09-06T16:02:11.972Z,1.10
2022-09-06T16:04:39.080Z,1.42
2022-09-06T16:07:06.859Z,1.48
2022-09-06T16:09:33.881Z,1.55
2022-09-06T16:12:00.720Z,1.23
2022-09-06T16:14:29.048Z,1.20
2022-09-06T16:16:56.483Z,1.50
2022-09-06T16:19:24.372Z,1.02
2022-09-06T16:21:51.171Z,1.10
2022-09-06T16:24:18.670Z,1.30
2022-09-06T16:26:48.884Z,1.30
2022-09-06T16:29:18.304Z,1.27
2022-09-06T16:31:46.207Z,1.10
2022-09-06T16:34:13.625Z,1.45
2022-09-06T16:36:41.122Z,1.50
2022-09-06T16:39:08.918Z,1.33
2022-09-06T16:41:39.510Z,1.73
2022-09-06T16:44:14.552Z,1.30
2022-09-06T16:46:41.830Z,1.30
2022-09-06T16:49:09.045Z,1.27
2022-09-06T16:51:36.195Z,1.50
2022-09-06T16:54:03.079Z,1.50
2022-09-06T16:56:34.826Z,1.50
2022-09-06T16:59:04.911Z,1.70
2022-09-06T17:01:32.958Z,1.77
2022-09-06T17:04:04.084Z,1.63
2022-09-06T17:06:32.637Z,1.70
2022-09-06T17:08:59.976Z,1.80
2022-09-06T17:11:28.428Z,1.73
2022-09-06T17:13:57.105Z,1.60
2022-09-06T17:16:44.120Z,1.73
2022-09-06T17:19:11.343Z,1.80
2022-09-06T17:21:40.131Z,1.67
2022-09-06T17:24:08.456Z,1.83
2022-09-06T17:26:37.464Z,1.50
2022-09-06T17:29:04.421Z,2.03
2022-09-06T17:31:31.578Z,1.52
2022-09-06T17:33:59.971Z,1.88
2022-09-06T17:36:32.379Z,1.60
2022-09-06T17:39:11.371Z,1.73
2022-09-06T17:41:40.583Z,1.80
2022-09-06T17:44:11.064Z,1.70
2022-09-06T17:46:47.625Z,1.70
2022-09-06T17:49:19.242Z,2.15
2022-09-06T17:51:46.727Z,1.73
2022-09-06T17:54:14.820Z,2.25
2022-09-06T17:56:41.895Z,2.05
2022-09-06T17:59:13.688Z,2.20
2022-09-06T18:01:42.116Z,2.10
2022-09-06T18:04:10.678Z,2.38
2022-09-06T18:06:40.967Z,2.50
2022-09-06T18:09:14.885Z,2.60
2022-09-06T18:11:44.631Z,2.67
2022-09-06T18:14:16.046Z,2.90
2022-09-06T18:16:47.480Z,3.00
2022-09-06T18:19:15.465Z,3.03
2022-09-06T18:21:42.698Z,3.10
2022-09-06T18:24:10.606Z,3.47
2022-09-06T18:26:37.763Z,3.60
2022-09-06T18:29:08.474Z,3.88
2022-09-06T18:31:35.754Z,3.55
2022-09-06T18:34:02.858Z,3.63
2022-09-06T18:36:32.479Z,4.05
2022-09-06T18:39:04.838Z,3.75
2022-09-06T18:41:51.400Z,4.00
2022-09-06T18:44:18.250Z,4.22
2022-09-06T18:46:45.259Z,3.90
2022-09-06T18:49:14.278Z,4.20
2022-09-06T18:51:41.526Z,4.18
2022-09-06T18:54:09.042Z,3.85
2022-09-06T18:56:35.837Z,4.63
2022-09-06T18:59:03.041Z,4.43
2022-09-06T19:01:30.273Z,4.03
2022-09-06T19:03:58.596Z,4.57
2022-09-06T19:06:27.310Z,4.75
2022-09-06T19:08:57.586Z,5.15
2022-09-06T19:11:25.013Z,4.25
2022-09-06T19:13:54.079Z,3.97
2022-09-06T19:16:23.016Z,4.03
2022-09-06T19:18:50.491Z,4.13
2022-09-06T19:21:22.203Z,4.47
2022-09-06T19:23:56.983Z,4.50
2022-09-06T19:26:25.641Z,4.43
2022-09-06T19:28:57.954Z,4.28
2022-09-06T19:31:27.202Z,4.43
2022-09-06T19:33:55.193Z,4.55
2022-09-06T19:36:23.562Z,4.18
2022-09-06T19:39:03.182Z,4.57
2022-09-06T19:41:33.181Z,4.53
2022-09-06T19:44:01.907Z,4.07
2022-09-06T19:46:28.916Z,4.30
2022-09-06T19:48:56.392Z,4.28
2022-09-06T19:51:24.292Z,3.97
2022-09-06T19:53:53.539Z,4.22
2022-09-06T19:56:32.820Z,4.68
2022-09-06T19:59:02.114Z,4.88
2022-09-06T20:01:31.256Z,4.82
2022-09-06T20:03:59.326Z,4.53
2022-09-06T20:06:27.049Z,4.20
2022-09-06T20:08:56.321Z,4.43
2022-09-06T20:11:26.333Z,4.50
2022-09-06T20:13:53.777Z,4.30
2022-09-06T20:16:22.147Z,4.50
2022-09-06T20:18:49.224Z,4.78
2022-09-06T20:21:18.537Z,4.63
2022-09-06T20:23:56.222Z,5.15
2022-09-06T20:26:24.109Z,5.32
2022-09-06T20:29:02.202Z,4.75
2022-09-06T20:31:30.608Z,4.82
2022-09-06T20:34:00.275Z,4.50
2022-09-06T20:36:27.443Z,4.50
2022-09-06T20:38:54.423Z,4.43
2022-09-06T20:41:24.041Z,4.78
2022-09-06T20:43:56.892Z,4.45
2022-09-06T20:46:27.996Z,4.85
2022-09-06T20:48:58.118Z,4.70
2022-09-06T20:51:25.376Z,4.53
2022-09-06T20:53:56.520Z,4.85
2022-09-06T20:56:31.793Z,4.32
2022-09-06T20:59:00.926Z,5.03
2022-09-06T21:01:36.740Z,4.35
2022-09-06T21:04:06.362Z,4.47
2022-09-06T21:06:35.661Z,4.50
2022-09-06T21:09:05.347Z,4.30
2022-09-06T21:11:32.466Z,4.28
2022-09-06T21:13:59.184Z,4.40
2022-09-06T21:16:28.425Z,4.75
2022-09-06T21:18:57.500Z,4.35
2022-09-06T21:21:25.613Z,4.80
2022-09-06T21:23:52.975Z,4.65
2022-09-06T21:26:20.814Z,4.30
2022-09-06T21:28:48.663Z,4.97
2022-09-06T21:31:24.062Z,4.43
2022-09-06T21:33:56.449Z,4.50
2022-09-06T21:36:30.107Z,4.30
2022-09-06T21:39:02.191Z,4.68
2022-09-06T21:41:29.868Z,4.70
2022-09-06T21:44:00.293Z,4.50
2022-09-06T21:46:33.758Z,4.25
2022-09-06T21:49:11.937Z,4.63
2022-09-06T21:51:39.489Z,4.35
2022-09-06T21:54:06.852Z,4.25
2022-09-06T21:56:35.997Z,4.18
2022-09-06T21:59:04.333Z,4.72
2022-09-06T22:01:34.451Z,4.70
2022-09-06T22:04:02.452Z,4.28
2022-09-06T22:06:31.434Z,4.22
2022-09-06T22:09:00.722Z,4.43
2022-09-06T22:11:30.475Z,4.50
2022-09-06T22:14:03.220Z,4.47
2022-09-06T22:16:32.637Z,4.45
2022-09-06T22:18:59.544Z,4.80
2022-09-06T22:21:26.547Z,4.65
2022-09-06T22:23:58.591Z,4.63
2022-09-06T22:26:27.101Z,4.80
2022-09-06T22:29:05.757Z,4.65
2022-09-06T22:31:34.200Z,4.50
2022-09-06T22:34:01.502Z,4.78
2022-09-06T22:36:29.183Z,5.10
2022-09-06T22:38:59.262Z,4.40
2022-09-06T22:41:27.947Z,4.80
2022-09-06T22:43:55.247Z,4.22
2022-09-06T22:46:23.165Z,4.70
2022-09-06T22:48:50.250Z,4.60
2022-09-06T22:51:17.262Z,4.78
2022-09-06T22:53:44.204Z,4.50
2022-09-06T22:56:11.198Z,4.80
2022-09-06T22:58:38.504Z,4.88
2022-09-06T23:01:10.031Z,4.53
2022-09-06T23:03:37.236Z,5.10
2022-09-06T23:06:04.656Z,4.88
2022-09-06T23:08:32.626Z,5.10
2022-09-06T23:11:04.413Z,4.75
2022-09-06T23:13:31.188Z,6.28
2022-09-06T23:16:04.816Z,4.60
2022-09-06T23:18:31.582Z,4.68
2022-09-06T23:21:04.331Z,4.80
2022-09-06T23:23:31.214Z,4.65
2022-09-06T23:26:03.663Z,4.43
2022-09-06T23:28:30.468Z,4.32
2022-09-06T23:30:57.410Z,4.80
2022-09-06T23:33:24.650Z,4.57
2022-09-06T23:35:54.618Z,4.93
2022-09-06T23:38:21.430Z,4.82
2022-09-06T23:40:48.414Z,5.40
2022-09-06T23:43:15.308Z,5.18
2022-09-06T23:45:42.099Z,4.68
2022-09-06T23:48:08.918Z,4.90
2022-09-06T23:50:35.766Z,4.95
2022-09-06T23:53:02.910Z,5.03
2022-09-06T23:55:29.751Z,4.97
2022-09-06T23:57:56.445Z,5.05
